Time;durP1;ratioP1;P1;durP2;ratioP2;P2;SDS_P1;SDS_P2;PMS_P1;PMS_P2;Temp;Humidity;BMP_temperature;BMP_pressure;BME280_temperature;BME280_humidity;BME280_pressure;Samples;Min_cycle;Max_cycle;Signal;HPM_P1;HPM_P2
2023/03/22 00:02:26;;;;;;;23.00;16.60;;;10.70;99.90;;;;;;5039303;28;20700;-77
2023/03/22 00:04:53;;;;;;;17.88;15.50;;;10.70;99.90;;;;;;5034076;28;20326;-78
2023/03/22 00:07:19;;;;;;;15.75;14.13;;;10.60;99.90;;;;;;5033700;28;20198;-77
2023/03/22 00:09:46;;;;;;;16.38;14.32;;;10.60;99.90;;;;;;5038441;28;20658;-77
2023/03/22 00:12:13;;;;;;;16.30;13.77;;;10.60;99.90;;;;;;5045110;28;20281;-77
2023/03/22 00:14:40;;;;;;;19.60;15.88;;;10.60;99.90;;;;;;5051215;28;20642;-78
2023/03/22 00:17:07;;;;;;;17.33;13.23;;;10.60;99.90;;;;;;5041045;28;20223;-77
2023/03/22 00:19:36;;;;;;;18.58;15.88;;;10.50;99.90;;;;;;5042636;28;20612;-77
2023/03/22 00:22:05;;;;;;;17.95;15.25;;;10.50;99.90;;;;;;5037543;28;20206;-77
2023/03/22 00:24:31;;;;;;;16.48;14.70;;;10.50;99.90;;;;;;5037920;28;20222;-77
2023/03/22 00:26:59;;;;;;;22.23;15.30;;;10.40;99.90;;;;;;5046010;28;20196;-77
2023/03/22 00:29:25;;;;;;;20.83;15.30;;;10.50;99.90;;;;;;5039756;28;20205;-77
2023/03/22 00:31:53;;;;;;;17.42;14.52;;;10.40;99.90;;;;;;5040503;28;20201;-78
2023/03/22 00:34:20;;;;;;;21.00;15.93;;;10.40;99.90;;;;;;5044661;28;20228;-77
2023/03/22 00:36:48;;;;;;;21.90;17.75;;;10.40;99.90;;;;;;5036164;28;20212;-77
2023/03/22 00:39:15;;;;;;;19.85;16.23;;;10.40;99.90;;;;;;5037793;28;20210;-77
2023/03/22 00:41:42;;;;;;;18.90;15.32;;;10.40;99.90;;;;;;5038349;28;20197;-78
2023/03/22 00:44:09;;;;;;;18.02;13.88;;;10.40;99.90;;;;;;5037743;28;20312;-78
2023/03/22 00:46:36;;;;;;;20.40;14.65;;;10.40;99.90;;;;;;5039483;28;20257;-77
2023/03/22 00:49:03;;;;;;;19.73;15.65;;;10.50;99.90;;;;;;5038206;28;20203;-77
2023/03/22 00:51:29;;;;;;;18.15;13.85;;;10.40;99.90;;;;;;5040059;28;20215;-77
2023/03/22 00:53:58;;;;;;;17.02;14.80;;;10.40;99.90;;;;;;5043335;28;20263;-77
2023/03/22 00:56:27;;;;;;;20.48;15.77;;;10.40;99.90;;;;;;5039221;28;20287;-77
2023/03/22 00:58:54;;;;;;;17.67;14.77;;;10.50;99.90;;;;;;5036306;28;20223;-77
2023/03/22 01:01:21;;;;;;;21.27;17.55;;;10.60;99.90;;;;;;5039457;28;20228;-78
2023/03/22 01:03:49;;;;;;;24.02;16.45;;;10.50;99.90;;;;;;5039087;28;20308;-77
2023/03/22 01:06:16;;;;;;;19.00;16.60;;;10.60;99.90;;;;;;5042226;28;20301;-77
2023/03/22 01:08:43;;;;;;;17.58;15.55;;;10.50;99.90;;;;;;5043093;28;20288;-77
2023/03/22 01:11:12;;;;;;;20.08;15.35;;;10.50;99.90;;;;;;5041687;28;20298;-76
2023/03/22 01:13:40;;;;;;;20.17;16.73;;;10.60;99.90;;;;;;5049216;28;20294;-76
2023/03/22 01:16:08;;;;;;;18.75;15.77;;;10.60;99.90;;;;;;5040467;28;20206;-78
2023/03/22 01:18:35;;;;;;;18.95;15.85;;;10.70;99.90;;;;;;5036766;28;20225;-77
2023/03/22 01:21:02;;;;;;;20.83;16.20;;;10.60;99.90;;;;;;5040795;28;20270;-77
2023/03/22 01:23:29;;;;;;;22.13;16.70;;;10.60;99.90;;;;;;5038480;28;20675;-78
2023/03/22 01:25:56;;;;;;;18.80;16.52;;;10.50;99.90;;;;;;5036740;28;20206;-78
2023/03/22 01:28:24;;;;;;;20.48;16.67;;;10.60;99.90;;;;;;5042759;28;20200;-78
2023/03/22 01:30:51;;;;;;;19.90;15.30;;;10.60;99.90;;;;;;5030939;28;20202;-78
2023/03/22 01:33:18;;;;;;;22.80;15.43;;;10.60;99.90;;;;;;5039892;28;20211;-77
2023/03/22 01:35:45;;;;;;;19.25;17.17;;;10.60;99.90;;;;;;5035883;28;20221;-78
2023/03/22 01:38:11;;;;;;;18.92;15.68;;;10.60;99.90;;;;;;5035982;28;20217;-77
2023/03/22 01:40:38;;;;;;;22.35;16.88;;;10.70;99.90;;;;;;5035864;28;20296;-78
2023/03/22 01:43:11;;;;;;;18.63;16.80;;;10.70;99.90;;;;;;5043355;28;20224;-77
2023/03/22 01:45:44;;;;;;;20.13;14.80;;;10.70;99.90;;;;;;5049651;28;20229;-76
2023/03/22 01:48:18;;;;;;;20.33;16.33;;;10.70;99.90;;;;;;5039141;28;20206;-77
2023/03/22 01:50:54;;;;;;;22.33;17.98;;;10.70;99.90;;;;;;5044311;28;20201;-77
2023/03/22 01:53:24;;;;;;;18.35;15.55;;;10.80;99.90;;;;;;5043572;28;20226;-77
2023/03/22 01:55:52;;;;;;;19.67;17.67;;;10.80;99.90;;;;;;5030101;28;20265;-77
2023/03/22 01:58:20;;;;;;;20.35;15.50;;;10.80;99.90;;;;;;5039548;28;20222;-77
2023/03/22 02:00:51;;;;;;;21.70;17.77;;;10.80;99.90;;;;;;5033001;28;20209;-78
2023/03/22 02:03:22;;;;;;;18.08;15.90;;;10.70;99.90;;;;;;5034557;28;20209;-76
2023/03/22 02:05:48;;;;;;;20.90;15.85;;;10.70;99.90;;;;;;5034741;28;20273;-78
2023/03/22 02:08:15;;;;;;;20.63;15.73;;;10.80;99.90;;;;;;5035538;28;20656;-77
2023/03/22 02:10:42;;;;;;;19.35;17.05;;;10.80;99.90;;;;;;5034231;28;20226;-77
2023/03/22 02:13:26;;;;;;;20.30;16.33;;;10.80;99.90;;;;;;5037634;28;20267;-77
2023/03/22 02:16:07;;;;;;;26.75;17.15;;;10.80;99.90;;;;;;5041086;28;20250;-78
2023/03/22 02:18:46;;;;;;;18.55;14.57;;;10.80;99.90;;;;;;5033235;28;20220;-77
2023/03/22 02:21:35;;;;;;;18.88;16.50;;;10.80;99.90;;;;;;5042588;28;20226;-77
2023/03/22 02:24:45;;;;;;;19.67;16.88;;;10.90;99.90;;;;;;5034390;28;20689;-77
2023/03/22 02:27:40;;;;;;;20.58;16.50;;;10.80;99.90;;;;;;5034026;28;20211;-77
2023/03/22 02:30:36;;;;;;;19.38;16.85;;;10.90;99.90;;;;;;5032615;28;20214;-77
2023/03/22 02:33:30;;;;;;;20.98;15.35;;;10.80;99.90;;;;;;5042694;28;20743;-77
2023/03/22 02:36:24;;;;;;;25.10;16.15;;;10.80;99.90;;;;;;5035028;28;20274;-77
2023/03/22 02:39:23;;;;;;;17.60;15.20;;;10.80;99.90;;;;;;5030145;28;20219;-78
2023/03/22 02:42:29;;;;;;;21.92;18.38;;;10.70;99.90;;;;;;5035995;28;20227;-77
2023/03/22 02:45:03;;;;;;;25.38;15.88;;;10.70;99.90;;;;;;5036603;28;20226;-77
2023/03/22 02:47:39;;;;;;;19.40;13.98;;;10.70;99.90;;;;;;5034287;28;20584;-78
2023/03/22 02:50:11;;;;;;;20.05;16.23;;;10.70;99.90;;;;;;5035598;28;20204;-77
2023/03/22 02:52:41;;;;;;;20.27;17.05;;;10.70;99.90;;;;;;5033282;28;20215;-77
2023/03/22 02:55:17;;;;;;;19.08;15.13;;;10.80;99.90;;;;;;5045675;28;20282;-77
2023/03/22 02:57:47;;;;;;;21.92;15.73;;;10.70;99.90;;;;;;5038248;28;20270;-76
2023/03/22 03:00:17;;;;;;;20.13;15.93;;;10.80;99.90;;;;;;5035835;28;20296;-77
2023/03/22 03:02:48;;;;;;;20.48;14.15;;;10.80;99.90;;;;;;5040748;28;20206;-77
2023/03/22 03:05:17;;;;;;;18.75;15.93;;;10.80;99.90;;;;;;5039892;28;20846;-78
2023/03/22 03:07:49;;;;;;;22.48;14.88;;;10.90;99.90;;;;;;5034199;28;20200;-76
2023/03/22 03:10:19;;;;;;;16.63;14.25;;;11.00;99.90;;;;;;5034960;28;20210;-77
2023/03/22 03:12:46;;;;;;;19.38;15.35;;;11.00;99.90;;;;;;5036705;28;20212;-77
2023/03/22 03:15:15;;;;;;;17.65;14.15;;;11.10;99.90;;;;;;5037690;28;20316;-77
2023/03/22 03:18:06;;;;;;;16.02;14.43;;;11.00;99.90;;;;;;5042092;28;20223;-77
2023/03/22 03:20:45;;;;;;;15.75;12.70;;;11.10;99.90;;;;;;5028848;28;20291;-76
2023/03/22 03:23:23;;;;;;;15.40;12.30;;;11.10;99.90;;;;;;5034677;28;20202;-78
2023/03/22 03:26:01;;;;;;;21.23;14.05;;;11.00;99.90;;;;;;5030589;28;20226;-77
2023/03/22 03:28:38;;;;;;;21.67;13.32;;;11.00;99.90;;;;;;5035921;28;20228;-77
2023/03/22 03:31:14;;;;;;;19.23;13.60;;;11.10;99.90;;;;;;5037831;28;20210;-77
2023/03/22 03:33:47;;;;;;;15.38;12.52;;;11.10;99.90;;;;;;5037974;28;20207;-76
2023/03/22 03:36:17;;;;;;;18.58;13.07;;;11.10;99.90;;;;;;5035360;28;20202;-77
2023/03/22 03:38:48;;;;;;;17.65;13.65;;;11.20;99.90;;;;;;5033648;28;20262;-76
2023/03/22 03:41:18;;;;;;;16.63;11.13;;;11.20;99.90;;;;;;5034191;28;20283;-77
2023/03/22 03:43:47;;;;;;;17.00;12.23;;;11.20;99.90;;;;;;5036937;28;20229;-78
2023/03/22 03:46:15;;;;;;;16.38;12.98;;;11.20;99.90;;;;;;5037816;28;20211;-77
2023/03/22 03:48:46;;;;;;;17.75;12.93;;;11.20;99.90;;;;;;5037583;28;20197;-77
2023/03/22 03:51:13;;;;;;;17.90;12.43;;;11.20;99.90;;;;;;5037007;28;20207;-77
2023/03/22 03:53:40;;;;;;;15.27;12.50;;;11.10;99.90;;;;;;5036567;28;20660;-77
2023/03/22 03:56:08;;;;;;;14.65;13.00;;;11.10;99.90;;;;;;5037017;28;20205;-76
2023/03/22 03:58:36;;;;;;;15.95;13.05;;;11.00;99.90;;;;;;5036901;28;20225;-77
2023/03/22 04:01:03;;;;;;;18.83;13.25;;;11.00;99.90;;;;;;5036574;28;20601;-77
2023/03/22 04:03:31;;;;;;;16.85;11.55;;;11.00;99.90;;;;;;5036803;28;20273;-77
2023/03/22 04:05:58;;;;;;;17.38;12.70;;;11.00;99.90;;;;;;5038288;28;20304;-77
2023/03/22 04:08:25;;;;;;;24.33;14.85;;;11.00;99.90;;;;;;5048185;28;20229;-77
2023/03/22 04:10:52;;;;;;;18.63;11.85;;;10.90;99.90;;;;;;5046029;28;20217;-76
2023/03/22 04:13:20;;;;;;;15.80;11.80;;;11.00;99.90;;;;;;5041470;28;20217;-76
2023/03/22 04:15:53;;;;;;;13.50;11.82;;;11.00;99.90;;;;;;5038809;28;20225;-77
2023/03/22 04:18:20;;;;;;;17.35;13.23;;;11.10;99.90;;;;;;5037990;28;20212;-76
2023/03/22 04:20:48;;;;;;;17.55;12.75;;;11.10;99.90;;;;;;5036156;28;20205;-78
2023/03/22 04:23:15;;;;;;;16.60;11.98;;;11.00;99.90;;;;;;5037540;28;20608;-78
2023/03/22 04:25:42;;;;;;;14.70;11.30;;;11.00;99.90;;;;;;5043840;28;20237;-77
2023/03/22 04:28:09;;;;;;;17.40;12.18;;;11.00;99.90;;;;;;5035934;28;20205;-76
2023/03/22 04:30:36;;;;;;;17.92;10.27;;;11.20;99.90;;;;;;5036420;28;20227;-77
2023/03/22 04:33:05;;;;;;;14.30;9.95;;;11.10;99.90;;;;;;5035510;28;20257;-77
2023/03/22 04:35:34;;;;;;;16.42;10.80;;;11.10;99.90;;;;;;5035499;28;20218;-76
2023/03/22 04:38:01;;;;;;;13.70;10.68;;;11.20;99.90;;;;;;5036501;28;20223;-77
2023/03/22 04:40:30;;;;;;;14.43;10.57;;;11.20;99.90;;;;;;5035420;28;20640;-77
2023/03/22 04:42:57;;;;;;;17.42;11.75;;;11.30;99.90;;;;;;5035983;28;20243;-77
2023/03/22 04:45:28;;;;;;;13.20;11.23;;;11.30;99.90;;;;;;5037061;28;20228;-76
2023/03/22 04:47:55;;;;;;;17.33;11.45;;;11.20;99.90;;;;;;5040374;28;20590;-78
2023/03/22 04:50:27;;;;;;;13.80;9.68;;;11.20;99.90;;;;;;5041458;28;20562;-78
2023/03/22 04:52:54;;;;;;;16.35;10.52;;;11.30;99.90;;;;;;5037134;28;20290;-77
2023/03/22 04:55:20;;;;;;;13.43;10.07;;;11.30;99.90;;;;;;5034771;28;20243;-75
2023/03/22 04:57:47;;;;;;;14.68;9.15;;;11.30;99.90;;;;;;5035680;28;20251;-77
2023/03/22 05:00:16;;;;;;;10.90;9.48;;;11.30;99.90;;;;;;5038918;28;20218;-76
2023/03/22 05:02:42;;;;;;;15.20;9.57;;;11.20;99.90;;;;;;5037296;28;20234;-77
2023/03/22 05:05:09;;;;;;;11.57;9.68;;;11.30;99.90;;;;;;5035881;28;20317;-76
2023/03/22 05:07:38;;;;;;;14.40;9.30;;;11.30;99.90;;;;;;5038131;28;20238;-76
2023/03/22 05:10:06;;;;;;;12.35;10.57;;;11.20;99.90;;;;;;5042065;28;20273;-76
2023/03/22 05:12:33;;;;;;;15.25;9.80;;;11.30;99.90;;;;;;5055318;28;20266;-76
2023/03/22 05:15:03;;;;;;;18.30;12.00;;;11.20;99.90;;;;;;5054362;28;20287;-76
2023/03/22 05:17:29;;;;;;;10.20;8.57;;;11.30;99.90;;;;;;5054246;28;20638;-77
2023/03/22 05:19:56;;;;;;;13.18;10.13;;;11.30;99.90;;;;;;5052772;28;20228;-77
2023/03/22 05:22:23;;;;;;;11.93;8.93;;;11.30;99.90;;;;;;5041847;28;20325;-76
2023/03/22 05:24:51;;;;;;;10.52;9.15;;;11.30;99.90;;;;;;5054965;28;20217;-76
2023/03/22 05:27:29;;;;;;;13.13;10.65;;;11.20;99.90;;;;;;5056787;28;20238;-77
2023/03/22 05:29:56;;;;;;;16.42;10.60;;;11.30;99.90;;;;;;5056118;28;20266;-76
2023/03/22 05:32:24;;;;;;;13.05;11.02;;;11.20;99.90;;;;;;5049945;28;20234;-77
2023/03/22 05:34:51;;;;;;;16.13;9.48;;;11.20;99.90;;;;;;5055979;28;20236;-77
2023/03/22 05:37:20;;;;;;;13.73;11.15;;;11.20;99.90;;;;;;5054249;28;20202;-76
2023/03/22 05:39:47;;;;;;;12.50;10.25;;;11.30;99.90;;;;;;5060397;28;20222;-76
2023/03/22 05:42:15;;;;;;;12.48;9.90;;;11.20;99.90;;;;;;5036830;28;20220;-77
2023/03/22 05:44:42;;;;;;;12.38;10.18;;;11.30;99.90;;;;;;5030845;28;20223;-77
2023/03/22 05:47:09;;;;;;;16.35;11.80;;;11.30;99.90;;;;;;5024306;28;20213;-77
2023/03/22 05:49:35;;;;;;;19.30;10.27;;;11.30;99.90;;;;;;5036095;28;20199;-77
2023/03/22 05:52:04;;;;;;;19.55;11.30;;;11.30;99.90;;;;;;5027963;28;20302;-77
2023/03/22 05:54:32;;;;;;;12.48;10.32;;;11.30;99.90;;;;;;5037208;28;20302;-77
2023/03/22 05:56:59;;;;;;;13.80;11.10;;;11.40;99.90;;;;;;5045761;28;20266;-77
2023/03/22 05:59:27;;;;;;;13.25;11.57;;;11.40;99.90;;;;;;5040092;28;20722;-77
2023/03/22 06:01:54;;;;;;;20.17;11.70;;;11.40;99.90;;;;;;5045537;28;20223;-77
2023/03/22 06:04:21;;;;;;;16.67;12.50;;;11.40;99.90;;;;;;5040837;28;20227;-76
2023/03/22 06:06:49;;;;;;;18.42;11.85;;;11.50;99.90;;;;;;5050477;28;20224;-77
2023/03/22 06:09:16;;;;;;;15.52;11.68;;;11.70;99.90;;;;;;5048566;28;20215;-76
2023/03/22 06:11:43;;;;;;;16.48;12.07;;;11.70;99.90;;;;;;5041746;28;20203;-76
2023/03/22 06:14:10;;;;;;;18.50;12.85;;;11.70;99.90;;;;;;5052037;28;20245;-76
2023/03/22 06:16:38;;;;;;;18.33;13.40;;;11.70;99.90;;;;;;5055277;28;20211;-79
2023/03/22 06:19:07;;;;;;;13.40;12.00;;;11.60;99.90;;;;;;5049944;28;20226;-75
2023/03/22 06:21:34;;;;;;;15.15;12.77;;;11.70;99.90;;;;;;5051246;28;20233;-76
2023/03/22 06:24:01;;;;;;;15.25;12.73;;;11.70;99.90;;;;;;5048166;28;20234;-77
2023/03/22 06:26:27;;;;;;;15.40;12.20;;;11.90;99.90;;;;;;5058428;28;20234;-77
2023/03/22 06:28:54;;;;;;;15.50;12.00;;;11.90;99.90;;;;;;5046405;28;20258;-77
2023/03/22 06:31:21;;;;;;;16.42;13.05;;;11.80;99.90;;;;;;5039122;28;20207;-76
2023/03/22 06:33:49;;;;;;;15.30;11.73;;;11.90;99.90;;;;;;5041004;28;20671;-77
2023/03/22 06:36:16;;;;;;;16.50;12.52;;;12.00;99.90;;;;;;5042697;28;20235;-78
2023/03/22 06:38:43;;;;;;;17.05;12.75;;;12.10;99.90;;;;;;5041116;28;20208;-78
2023/03/22 06:41:10;;;;;;;19.50;13.18;;;12.20;99.90;;;;;;5042076;28;20302;-77
2023/03/22 06:43:36;;;;;;;15.20;12.13;;;12.20;99.90;;;;;;5039438;28;20299;-77
2023/03/22 06:46:04;;;;;;;16.83;12.00;;;12.30;99.90;;;;;;5029604;28;20286;-77
2023/03/22 06:48:31;;;;;;;15.85;12.30;;;12.40;99.90;;;;;;5035336;28;20219;-78
2023/03/22 06:50:59;;;;;;;15.68;12.05;;;12.40;99.90;;;;;;5044397;28;20441;-77
2023/03/22 06:53:26;;;;;;;14.32;11.57;;;12.40;99.90;;;;;;5037449;28;20230;-77
2023/03/22 06:55:53;;;;;;;16.25;12.48;;;12.40;99.90;;;;;;5039181;28;20544;-78
2023/03/22 06:58:20;;;;;;;18.17;13.07;;;12.30;99.90;;;;;;5050046;28;20293;-77
2023/03/22 07:00:47;;;;;;;17.02;11.88;;;12.40;99.90;;;;;;5036030;28;20204;-79
2023/03/22 07:03:14;;;;;;;16.27;12.98;;;12.60;99.90;;;;;;5036905;28;20286;-78
2023/03/22 07:05:40;;;;;;;16.58;12.05;;;12.70;99.90;;;;;;5046152;28;20250;-77
2023/03/22 07:08:09;;;;;;;14.77;11.50;;;12.80;99.90;;;;;;5032703;28;20615;-78
2023/03/22 07:10:36;;;;;;;15.55;11.73;;;13.00;99.90;;;;;;5042723;28;20199;-77
2023/03/22 07:13:03;;;;;;;15.98;12.43;;;13.20;99.90;;;;;;5051625;28;20270;-79
2023/03/22 07:15:31;;;;;;;15.88;11.35;;;13.50;99.90;;;;;;5043195;28;20232;-78
2023/03/22 07:17:59;;;;;;;12.13;10.55;;;13.80;99.90;;;;;;5035884;28;20283;-78
2023/03/22 07:20:27;;;;;;;15.68;11.30;;;14.00;99.90;;;;;;5041360;28;20243;-78
2023/03/22 07:22:54;;;;;;;13.50;10.68;;;13.90;99.90;;;;;;5037913;28;20239;-80
2023/03/22 07:25:22;;;;;;;22.27;11.60;;;13.70;99.90;;;;;;5045072;28;20735;-79
2023/03/22 07:27:49;;;;;;;15.05;10.90;;;13.30;99.90;;;;;;5042883;28;20788;-79
2023/03/22 07:30:16;;;;;;;16.83;11.40;;;13.40;99.90;;;;;;5046253;28;20219;-83
2023/03/22 07:32:43;;;;;;;13.55;10.13;;;13.40;99.90;;;;;;5046775;28;20227;-77
2023/03/22 07:35:10;;;;;;;18.10;11.80;;;13.30;99.90;;;;;;5048156;28;20232;-82
2023/03/22 07:37:37;;;;;;;13.65;10.48;;;13.20;99.90;;;;;;5050502;28;20207;-81
2023/03/22 07:40:04;;;;;;;14.60;10.85;;;13.30;99.90;;;;;;5050017;28;20292;-81
2023/03/22 07:42:33;;;;;;;13.10;9.65;;;13.20;99.90;;;;;;5055710;28;20207;-80
2023/03/22 07:45:00;;;;;;;15.55;10.82;;;13.20;99.90;;;;;;5054148;28;20219;-79
2023/03/22 07:47:27;;;;;;;15.82;10.70;;;13.20;99.90;;;;;;5052295;28;20223;-79
2023/03/22 07:49:54;;;;;;;15.32;10.95;;;13.20;99.90;;;;;;5055090;28;20211;-79
2023/03/22 07:52:21;;;;;;;12.23;9.85;;;13.20;99.90;;;;;;5058601;28;20226;-80
2023/03/22 07:54:48;;;;;;;14.00;10.70;;;13.10;99.90;;;;;;5060122;28;20259;-78
2023/03/22 07:57:15;;;;;;;14.05;9.60;;;13.20;99.90;;;;;;5057702;28;20229;-80
2023/03/22 07:59:43;;;;;;;15.52;9.43;;;13.40;99.90;;;;;;5052313;28;20284;-78
2023/03/22 08:02:10;;;;;;;14.38;11.10;;;13.60;99.90;;;;;;5054278;28;20200;-80
2023/03/22 08:04:37;;;;;;;17.95;9.88;;;13.50;99.90;;;;;;5041167;28;20224;-80
2023/03/22 08:07:04;;;;;;;14.25;8.77;;;13.60;99.90;;;;;;5049213;28;20279;-79
2023/03/22 08:09:32;;;;;;;9.93;8.82;;;13.60;99.90;;;;;;5044860;28;20292;-80
2023/03/22 08:11:58;;;;;;;9.85;7.90;;;13.60;99.90;;;;;;5046883;28;20211;-78
2023/03/22 08:14:25;;;;;;;8.82;7.95;;;14.00;99.90;;;;;;5047106;28;20225;-77
2023/03/22 08:16:53;;;;;;;9.90;8.32;;;14.70;99.90;;;;;;5040508;28;20202;-79
2023/03/22 08:19:20;;;;;;;11.98;7.88;;;14.90;99.90;;;;;;5040460;28;20240;-79
2023/03/22 08:21:47;;;;;;;11.87;7.73;;;15.00;99.90;;;;;;5040721;28;20367;-79
2023/03/22 08:24:14;;;;;;;11.38;7.50;;;15.30;99.90;;;;;;5044398;28;20469;-79
2023/03/22 08:26:41;;;;;;;11.47;8.00;;;15.40;99.90;;;;;;5046356;28;20261;-79
2023/03/22 08:29:08;;;;;;;8.35;7.25;;;15.50;99.90;;;;;;5047016;28;20456;-80
2023/03/22 08:31:35;;;;;;;10.60;6.70;;;15.50;99.90;;;;;;5043252;28;20258;-81
2023/03/22 08:34:03;;;;;;;11.47;7.70;;;15.60;99.90;;;;;;5048327;28;20490;-79
2023/03/22 08:36:30;;;;;;;8.70;6.30;;;16.00;99.90;;;;;;5060465;28;20502;-79
2023/03/22 08:38:57;;;;;;;9.27;6.47;;;16.10;99.90;;;;;;5038446;28;20461;-80
2023/03/22 08:41:24;;;;;;;11.83;7.20;;;16.00;99.90;;;;;;5045153;28;20542;-77
2023/03/22 08:43:52;;;;;;;10.07;6.27;;;15.60;99.90;;;;;;5055161;28;20452;-78
2023/03/22 08:46:19;;;;;;;11.43;6.40;;;15.80;99.90;;;;;;5062553;28;20445;-79
2023/03/22 08:48:49;;;;;;;10.60;5.57;;;16.20;99.90;;;;;;5049935;28;20508;-79
2023/03/22 08:51:18;;;;;;;6.43;4.97;;;16.80;99.90;;;;;;5064737;28;20439;-79
2023/03/22 08:53:45;;;;;;;6.93;4.87;;;16.80;99.90;;;;;;5050151;28;20475;-80
2023/03/22 08:56:13;;;;;;;20.23;6.67;;;16.40;99.90;;;;;;5046054;28;20450;-78
2023/03/22 08:58:41;;;;;;;9.23;5.20;;;15.90;99.90;;;;;;5052471;28;20448;-80
2023/03/22 09:01:10;;;;;;;7.70;4.63;;;15.00;99.90;;;;;;5047539;28;20489;-80
2023/03/22 09:03:37;;;;;;;9.00;5.90;;;15.00;99.90;;;;;;5047092;28;20470;-81
2023/03/22 09:06:05;;;;;;;11.40;6.67;;;15.10;99.90;;;;;;5061258;28;20538;-81
2023/03/22 09:08:33;;;;;;;8.67;5.90;;;15.60;99.90;;;;;;5065082;28;20482;-79
2023/03/22 09:11:00;;;;;;;8.57;4.80;;;15.60;99.90;;;;;;5046117;28;20518;-79
2023/03/22 09:13:29;;;;;;;9.57;4.50;;;15.70;99.90;;;;;;5045866;28;20235;-78
2023/03/22 09:15:56;;;;;;;10.53;4.97;;;15.70;99.90;;;;;;5044667;28;21094;-79
2023/03/22 09:18:24;;;;;;;7.80;4.60;;;15.40;99.90;;;;;;5045306;28;20876;-80
2023/03/22 09:20:51;;;;;;;8.30;4.73;;;15.50;99.90;;;;;;5044156;28;20883;-79
2023/03/22 09:23:18;;;;;;;6.40;4.73;;;15.60;99.90;;;;;;5053220;28;20444;-78
2023/03/22 09:25:48;;;;;;;14.30;6.18;;;15.20;99.90;;;;;;5052680;28;20484;-78
2023/03/22 09:28:15;;;;;;;7.57;5.30;;;14.70;99.90;;;;;;5045279;28;20217;-80
2023/03/22 09:30:43;;;;;;;10.45;5.07;;;14.90;99.90;;;;;;5058951;28;20225;-79
2023/03/22 09:33:10;;;;;;;6.90;5.50;;;14.80;99.90;;;;;;5058917;28;20232;-78
2023/03/22 09:35:41;;;;;;;8.85;4.95;;;14.70;99.90;;;;;;5052829;28;20220;-78
2023/03/22 09:38:08;;;;;;;6.63;4.03;;;14.80;99.90;;;;;;5059931;28;20217;-80
2023/03/22 09:40:36;;;;;;;10.98;5.60;;;14.80;99.90;;;;;;5045463;28;20313;-79
2023/03/22 09:43:07;;;;;;;8.45;3.90;;;14.50;99.90;;;;;;5053774;28;20197;-78
2023/03/22 09:45:39;;;;;;;5.25;3.40;;;14.50;99.90;;;;;;5046378;28;20309;-79
2023/03/22 09:48:11;;;;;;;6.97;3.50;;;14.80;99.90;;;;;;5043607;28;20658;-79
2023/03/22 09:50:45;;;;;;;10.05;3.80;;;14.70;99.90;;;;;;5044233;28;20513;-78
2023/03/22 09:53:15;;;;;;;7.28;4.32;;;14.60;99.90;;;;;;5043548;28;20198;-80
2023/03/22 09:55:48;;;;;;;7.68;4.60;;;14.50;99.90;;;;;;5050099;28;20233;-79
2023/03/22 09:58:24;;;;;;;9.73;4.85;;;14.50;99.90;;;;;;5058883;28;20270;-80
2023/03/22 10:00:57;;;;;;;8.75;3.80;;;14.40;99.90;;;;;;5047351;28;20220;-78
2023/03/22 10:03:39;;;;;;;8.15;3.97;;;14.30;99.90;;;;;;5065271;28;20290;-79
2023/03/22 10:06:13;;;;;;;4.35;3.60;;;14.20;99.90;;;;;;5056032;28;20272;-78
2023/03/22 10:08:50;;;;;;;8.32;3.58;;;14.20;99.90;;;;;;5070738;28;20262;-80
2023/03/22 10:11:25;;;;;;;11.15;3.80;;;13.90;99.90;;;;;;5057581;28;20192;-78
2023/03/22 10:14:02;;;;;;;5.00;3.95;;;13.90;99.90;;;;;;5052261;28;20226;-79
2023/03/22 10:16:32;;;;;;;5.75;3.58;;;13.90;99.90;;;;;;5050885;28;20231;-79
2023/03/22 10:19:05;;;;;;;7.68;3.20;;;13.90;99.90;;;;;;5048748;28;20199;-80
2023/03/22 10:21:33;;;;;;;9.25;3.53;;;13.90;99.90;;;;;;5041241;28;20232;-80
2023/03/22 10:24:03;;;;;;;7.05;3.38;;;14.00;99.90;;;;;;5044158;28;20262;-78
2023/03/22 10:26:36;;;;;;;7.57;2.78;;;14.20;99.90;;;;;;5049013;28;20703;-80
2023/03/22 10:29:11;;;;;;;7.60;3.90;;;14.40;99.90;;;;;;5050139;28;20284;-79
2023/03/22 10:31:42;;;;;;;6.68;3.60;;;14.50;99.90;;;;;;5059363;28;20208;-79
2023/03/22 10:34:18;;;;;;;8.00;4.40;;;14.50;99.90;;;;;;5050895;28;20701;-78
2023/03/22 10:36:45;;;;;;;5.10;2.80;;;14.80;99.90;;;;;;5050505;28;20437;-80
2023/03/22 10:39:18;;;;;;;7.10;3.63;;;15.00;99.90;;;;;;5053631;28;20220;-79
2023/03/22 10:41:46;;;;;;;5.22;3.55;;;14.90;99.90;;;;;;5057221;28;20665;-79
2023/03/22 10:44:19;;;;;;;8.02;3.75;;;14.90;99.90;;;;;;5045904;28;20729;-79
2023/03/22 10:46:48;;;;;;;13.70;4.28;;;14.70;99.90;;;;;;5048469;28;20234;-80
2023/03/22 10:49:22;;;;;;;6.05;2.97;;;14.50;99.90;;;;;;5047880;28;20268;-79
2023/03/22 10:51:50;;;;;;;4.65;3.10;;;14.30;99.90;;;;;;5052623;28;20575;-80
2023/03/22 10:54:21;;;;;;;9.98;3.38;;;14.20;99.90;;;;;;5055310;28;20257;-78
2023/03/22 10:56:48;;;;;;;5.40;2.80;;;14.10;99.90;;;;;;5055743;28;20192;-82
2023/03/22 10:59:43;;;;;;;3.22;2.88;;;14.20;99.90;;;;;;5043789;28;20260;-80
2023/03/22 11:02:22;;;;;;;7.40;3.95;;;14.30;99.90;;;;;;5047781;28;20271;-81
2023/03/22 11:04:51;;;;;;;8.40;2.80;;;14.50;99.90;;;;;;5041807;28;20223;-81
2023/03/22 11:07:31;;;;;;;7.85;4.50;;;14.50;99.90;;;;;;5044501;28;20318;-82
2023/03/22 11:10:00;;;;;;;4.80;2.58;;;14.50;99.90;;;;;;5043478;28;20304;-82
2023/03/22 11:12:27;;;;;;;4.65;2.40;;;14.60;99.90;;;;;;5044226;28;20226;-82
2023/03/22 11:14:56;;;;;;;6.53;2.83;;;14.60;99.90;;;;;;5053277;28;20240;-83
2023/03/22 11:17:25;;;;;;;6.57;2.15;;;14.60;99.90;;;;;;5042284;28;20295;-83
2023/03/22 11:19:55;;;;;;;9.02;4.28;;;14.70;99.90;;;;;;5042332;28;20210;-82
2023/03/22 11:22:25;;;;;;;5.07;2.47;;;14.60;99.90;;;;;;5044790;28;20276;-80
2023/03/22 11:24:55;;;;;;;4.13;2.28;;;14.50;99.90;;;;;;5045215;28;20315;-80
2023/03/22 11:27:25;;;;;;;8.63;2.65;;;14.70;99.90;;;;;;5051554;28;20279;-79
2023/03/22 11:29:57;;;;;;;5.55;2.15;;;14.80;99.90;;;;;;5049291;28;20324;-82
2023/03/22 11:32:27;;;;;;;7.43;2.50;;;15.10;99.90;;;;;;5057106;28;20249;-80
2023/03/22 11:35:02;;;;;;;15.27;2.87;;;15.30;99.90;;;;;;5072413;28;20210;-82
2023/03/22 11:37:29;;;;;;;11.23;3.08;;;15.20;99.90;;;;;;5055498;28;20429;-80
2023/03/22 11:40:03;;;;;;;3.35;1.63;;;15.10;99.90;;;;;;5045638;28;20202;-80
2023/03/22 11:42:34;;;;;;;8.88;2.67;;;15.10;99.90;;;;;;5043634;28;20197;-79
2023/03/22 11:45:02;;;;;;;5.15;2.25;;;15.10;99.90;;;;;;5061550;28;20280;-79
2023/03/22 11:47:34;;;;;;;8.15;3.05;;;15.20;99.90;;;;;;5053500;28;20203;-82
2023/03/22 11:50:04;;;;;;;5.18;2.10;;;14.80;99.90;;;;;;5057077;28;20329;-78
2023/03/22 11:52:31;;;;;;;6.25;2.17;;;14.90;99.90;;;;;;5047351;28;20268;-79
2023/03/22 11:55:00;;;;;;;5.85;2.08;;;14.70;99.90;;;;;;5038230;28;20281;-82
2023/03/22 11:57:30;;;;;;;7.03;1.75;;;14.50;99.90;;;;;;5040176;28;20286;-80
2023/03/22 12:00:05;;;;;;;4.40;1.60;;;14.60;99.90;;;;;;5046677;28;20213;-80
2023/03/22 12:02:38;;;;;;;5.32;3.10;;;14.60;99.90;;;;;;5051844;28;20203;-79
2023/03/22 12:05:11;;;;;;;9.20;3.00;;;14.40;99.90;;;;;;5042936;28;20235;-78
2023/03/22 12:07:41;;;;;;;9.02;2.45;;;14.30;99.90;;;;;;5058085;28;20232;-78
2023/03/22 12:10:15;;;;;;;4.75;2.42;;;14.40;99.90;;;;;;5054229;28;20292;-78
2023/03/22 12:12:47;;;;;;;4.93;2.25;;;14.20;99.90;;;;;;5047829;28;20206;-81
2023/03/22 12:15:18;;;;;;;7.13;2.40;;;14.30;99.90;;;;;;5045899;28;20224;-79
2023/03/22 12:17:53;;;;;;;3.55;2.25;;;14.10;99.90;;;;;;5055103;28;20220;-80
2023/03/22 12:20:26;;;;;;;8.43;2.33;;;14.10;99.90;;;;;;5044048;28;20237;-80
2023/03/22 12:22:55;;;;;;;7.90;2.88;;;14.10;99.90;;;;;;5045664;28;20196;-81
2023/03/22 12:25:24;;;;;;;6.82;2.05;;;14.00;99.90;;;;;;5035391;28;20232;-78
2023/03/22 12:27:54;;;;;;;8.07;2.70;;;14.00;99.90;;;;;;5042760;28;20212;-79
2023/03/22 12:30:27;;;;;;;11.40;2.92;;;14.00;99.90;;;;;;5046659;28;20296;-87
2023/03/22 12:33:01;;;;;;;4.40;2.30;;;14.10;99.90;;;;;;5054797;28;20196;-80
2023/03/22 12:35:33;;;;;;;8.52;2.67;;;14.10;99.90;;;;;;5054481;28;20220;-80
2023/03/22 12:38:05;;;;;;;4.95;2.90;;;13.70;99.90;;;;;;5056609;28;20290;-79
2023/03/22 12:40:36;;;;;;;8.68;3.08;;;13.60;99.90;;;;;;5054512;28;20212;-81
2023/03/22 12:43:11;;;;;;;7.57;3.70;;;13.70;99.90;;;;;;5048251;28;20295;-80
2023/03/22 12:45:42;;;;;;;5.35;2.38;;;13.60;99.90;;;;;;5055452;28;20223;-79
2023/03/22 12:48:17;;;;;;;2.17;1.98;;;13.60;99.90;;;;;;5052777;28;20310;-79